Time;durP1;ratioP1;P1;durP2;ratioP2;P2;SDS_P1;SDS_P2;PMS_P1;PMS_P2;Temp;Humidity;BMP_temperature;BMP_pressure;BME280_temperature;BME280_humidity;BME280_pressure;Samples;Min_cycle;Max_cycle;Signal;HPM_P1;HPM_P2
2022/06/08 00:01:31;;;;;;;7.50;3.20;;;;;;;24.21;50.59;97942.13;4473691;32;20217;-76
2022/06/08 00:03:58;;;;;;;10.35;3.70;;;;;;;24.19;50.55;97936.09;4473524;32;20092;-77
2022/06/08 00:06:24;;;;;;;7.97;3.15;;;;;;;24.29;50.35;97932.06;4473553;32;20106;-76
2022/06/08 00:08:49;;;;;;;9.05;3.60;;;;;;;24.26;50.24;97936.97;4487687;32;20389;-76
2022/06/08 00:11:16;;;;;;;9.55;3.35;;;;;;;24.13;50.67;97940.38;4473565;32;20146;-76
2022/06/08 00:13:42;;;;;;;7.75;3.17;;;;;;;23.74;51.71;97942.41;4473414;32;20148;-76
2022/06/08 00:16:09;;;;;;;9.13;3.33;;;;;;;23.91;51.42;97943.06;4473447;32;20084;-76
2022/06/08 00:18:34;;;;;;;10.82;3.50;;;;;;;23.92;51.34;97944.72;4487609;32;20557;-77
2022/06/08 00:21:00;;;;;;;8.43;3.47;;;;;;;23.91;51.33;97942.19;4487699;32;20102;-77
2022/06/08 00:23:26;;;;;;;9.05;3.70;;;;;;;24.03;51.16;97945.22;4487650;32;20128;-77
2022/06/08 00:25:51;;;;;;;9.70;3.37;;;;;;;23.98;51.29;97934.22;4473307;32;20085;-77
2022/06/08 00:28:17;;;;;;;8.55;3.25;;;;;;;23.97;51.33;97930.72;4473390;32;20096;-77
2022/06/08 00:30:42;;;;;;;8.63;3.28;;;;;;;24.03;51.19;97935.31;4486797;32;20084;-76
2022/06/08 00:33:08;;;;;;;8.93;3.33;;;;;;;23.97;51.40;97932.53;4473486;32;20111;-76
2022/06/08 00:35:33;;;;;;;9.85;3.30;;;;;;;23.94;51.39;97933.75;4487938;32;20086;-77
2022/06/08 00:37:59;;;;;;;7.95;3.10;;;;;;;24.00;51.28;97934.87;4473573;32;20161;-77
2022/06/08 00:40:36;;;;;;;7.93;3.85;;;;;;;23.97;51.35;97940.63;4487862;32;20153;-77
2022/06/08 00:43:02;;;;;;;8.85;3.60;;;;;;;23.70;51.96;97941.13;4473575;32;20149;-77
2022/06/08 00:45:27;;;;;;;8.32;3.42;;;;;;;23.74;51.78;97937.03;4487798;32;20175;-77
2022/06/08 00:47:56;;;;;;;8.63;3.25;;;;;;;23.75;51.82;97937.84;4473502;32;20409;-77
2022/06/08 00:50:28;;;;;;;9.07;3.50;;;;;;;23.67;52.05;97944.19;4473398;32;20151;-77
2022/06/08 00:52:54;;;;;;;7.90;3.50;;;;;;;23.53;52.36;97939.66;4473182;32;20124;-78
2022/06/08 00:55:23;;;;;;;9.55;3.90;;;;;;;23.53;52.29;97934.28;4487739;32;20149;-77
2022/06/08 00:57:52;;;;;;;9.00;3.30;;;;;;;23.73;51.90;97939.91;4473466;32;20092;-77
2022/06/08 01:00:21;;;;;;;7.12;3.12;;;;;;;23.87;51.67;97981.25;4487551;32;20155;-77
2022/06/08 01:02:47;;;;;;;11.30;3.83;;;;;;;24.01;51.70;98017.22;4460150;32;20501;-77
2022/06/08 01:05:18;;;;;;;9.70;3.67;;;;;;;23.78;52.88;98006.56;4487452;32;20076;-77
2022/06/08 01:07:43;;;;;;;10.23;3.72;;;;;;;23.90;52.68;97988.97;4487239;32;20085;-77
2022/06/08 01:10:14;;;;;;;9.02;3.40;;;;;;;24.09;51.98;98001.81;4472936;32;20380;-77
2022/06/08 01:12:39;;;;;;;8.98;3.20;;;;;;;24.10;52.12;97992.72;4472929;32;20123;-77
2022/06/08 01:15:05;;;;;;;8.48;3.35;;;;;;;24.09;52.37;97977.59;4487250;32;20103;-77
2022/06/08 01:17:31;;;;;;;8.30;3.30;;;;;;;24.05;52.30;97973.63;4487421;32;20156;-76
2022/06/08 01:19:56;;;;;;;9.77;3.40;;;;;;;24.07;52.58;97976.97;4487277;32;20420;-77
2022/06/08 01:22:22;;;;;;;8.18;3.42;;;;;;;24.03;52.29;97964.06;4487262;32;20368;-77
2022/06/08 01:24:49;;;;;;;8.65;3.40;;;;;;;23.91;53.19;97969.09;4472878;32;20138;-77
2022/06/08 01:28:02;;;;;;;8.50;3.30;;;;;;;23.91;54.15;97979.84;4473005;32;20164;-77
2022/06/08 01:30:34;;;;;;;7.20;3.10;;;;;;;23.83;54.30;97988.03;4407597;32;20132;-77
2022/06/08 01:33:05;;;;;;;12.75;3.90;;;;;;;23.75;54.74;97992.47;4407587;32;20347;-77
2022/06/08 01:35:30;;;;;;;9.55;3.80;;;;;;;23.73;55.39;97993.69;4407722;32;20116;-77
2022/06/08 01:38:20;;;;;;;8.27;3.47;;;;;;;23.56;55.98;97987.66;4407559;32;20502;-77
2022/06/08 01:41:13;;;;;;;8.40;3.50;;;;;;;23.73;56.08;97983.75;4407642;32;20089;-77
2022/06/08 01:43:48;;;;;;;9.15;3.47;;;;;;;23.58;54.89;97966.81;4394332;32;20106;-77
2022/06/08 01:46:31;;;;;;;8.32;3.47;;;;;;;23.40;55.20;97956.44;4407630;32;20345;-78
2022/06/08 01:49:41;;;;;;;9.95;3.42;;;;;;;22.94;56.35;97951.19;4394935;32;20168;-77
2022/06/08 01:52:28;;;;;;;8.57;3.55;;;;;;;22.73;57.63;97947.34;4395042;32;20101;-77
2022/06/08 01:55:15;;;;;;;9.27;3.40;;;;;;;22.56;58.36;97937.78;4407425;32;20153;-77
2022/06/08 01:57:55;;;;;;;8.85;4.10;;;;;;;22.55;58.73;97953.06;4407441;32;20120;-77
2022/06/08 02:00:24;;;;;;;8.35;3.60;;;;;;;22.50;58.58;97963.50;4407444;32;20106;-77
2022/06/08 02:03:23;;;;;;;9.00;3.62;;;;;;;22.39;58.72;97969.28;4394867;32;20113;-77
2022/06/08 02:05:57;;;;;;;9.75;3.80;;;;;;;21.87;59.75;97970.75;4394766;32;20109;-77
2022/06/08 02:08:50;;;;;;;9.20;3.85;;;;;;;22.09;59.44;97960.25;4394706;32;20140;-77
2022/06/08 02:11:29;;;;;;;8.30;3.67;;;;;;;22.21;59.45;97971.41;4394726;32;20191;-76
2022/06/08 02:14:09;;;;;;;9.38;3.33;;;;;;;22.33;59.37;97970.84;4394805;32;20161;-77
2022/06/08 02:16:41;;;;;;;8.98;3.72;;;;;;;22.47;59.52;97979.13;4407287;32;20285;-77
2022/06/08 02:19:32;;;;;;;9.10;3.70;;;;;;;22.52;58.79;97979.41;4394727;32;20147;-77
2022/06/08 02:22:06;;;;;;;9.43;3.67;;;;;;;22.54;58.45;97983.59;4389371;32;20630;-77
2022/06/08 02:24:39;;;;;;;7.87;3.37;;;;;;;22.67;58.60;97982.97;4394867;32;20098;-77
2022/06/08 02:27:11;;;;;;;8.32;3.62;;;;;;;22.77;58.42;97994.34;4394953;32;20152;-78
2022/06/08 02:29:39;;;;;;;8.35;3.47;;;;;;;22.73;57.98;97982.25;4394738;32;20094;-77
2022/06/08 02:34:58;;;;;;;10.23;4.07;;;;;;;22.64;58.63;97985.19;4396429;32;20177;-78
2022/06/08 02:37:28;;;;;;;9.57;3.50;;;;;;;22.71;58.87;97995.03;4394447;32;20168;-78
2022/06/08 02:40:09;;;;;;;10.20;4.28;;;;;;;22.81;59.11;97989.41;4394356;32;20171;-78
2022/06/08 02:42:52;;;;;;;9.48;3.90;;;;;;;22.77;58.54;97983.59;4471218;32;20176;-78
2022/06/08 02:45:29;;;;;;;9.25;3.78;;;;;;;22.72;59.19;97985.97;4472435;32;20589;-77
2022/06/08 02:47:58;;;;;;;10.40;4.28;;;;;;;22.70;59.70;97982.63;4472266;32;20753;-78
2022/06/08 02:50:25;;;;;;;9.77;3.90;;;;;;;22.72;59.87;97985.97;4472149;32;20108;-78
2022/06/08 02:52:53;;;;;;;11.48;4.07;;;;;;;22.55;60.15;97979.91;4486697;32;20118;-77
2022/06/08 02:55:31;;;;;;;9.73;3.85;;;;;;;22.68;60.19;97981.16;4473283;32;20100;-78
2022/06/08 02:57:59;;;;;;;;;;;;;;;22.66;59.71;97972.44;4474450;32;20096;-77
2022/06/08 03:00:40;;;;;;;9.80;3.80;;;;;;;22.38;60.41;97964.94;4474262;32;19991;-77
2022/06/08 03:03:11;;;;;;;9.52;3.75;;;;;;;22.31;60.90;97959.47;4488356;32;20096;-77
2022/06/08 03:05:48;;;;;;;8.77;3.80;;;;;;;22.30;60.93;97965.00;4474176;32;20254;-77
2022/06/08 03:08:22;;;;;;;8.63;3.70;;;;;;;22.13;61.88;97974.97;4474074;32;20092;-77
2022/06/08 03:10:49;;;;;;;9.90;4.18;;;;;;;22.14;61.76;97982.00;4473981;32;20147;-77
2022/06/08 03:13:16;;;;;;;10.77;4.10;;;;;;;22.25;61.69;97989.69;4487955;32;20112;-77
2022/06/08 03:15:43;;;;;;;9.30;4.20;;;;;;;22.31;61.62;98002.38;4488265;32;20156;-77
2022/06/08 03:18:08;;;;;;;8.82;3.95;;;;;;;22.31;61.87;97998.84;4473927;32;20100;-77
2022/06/08 03:20:35;;;;;;;9.80;4.40;;;;;;;22.29;61.15;97993.69;4488024;32;20080;-77
2022/06/08 03:23:01;;;;;;;9.73;4.03;;;;;;;22.17;61.09;97987.88;4474045;32;20142;-77
2022/06/08 03:25:26;;;;;;;9.30;4.07;;;;;;;21.94;61.64;97981.59;4474032;32;20452;-77
2022/06/08 03:27:53;;;;;;;11.15;4.20;;;;;;;21.90;62.26;97975.75;4488172;32;20155;-77
2022/06/08 03:30:19;;;;;;;9.45;4.47;;;;;;;21.96;62.94;97974.22;4460609;32;20126;-78
2022/06/08 03:32:45;;;;;;;10.45;4.68;;;;;;;21.91;62.59;97973.94;4473718;32;20508;-77
2022/06/08 03:35:10;;;;;;;11.27;4.75;;;;;;;21.75;62.49;97973.00;4473872;32;20100;-77
2022/06/08 03:37:36;;;;;;;9.85;4.40;;;;;;;21.92;62.29;97983.63;4473817;32;20089;-77
2022/06/08 03:40:02;;;;;;;10.45;4.90;;;;;;;21.90;62.31;97983.81;4487966;32;20091;-77
2022/06/08 03:42:28;;;;;;;10.77;4.80;;;;;;;21.80;62.78;97981.34;4488194;32;20130;-77
2022/06/08 03:44:53;;;;;;;10.38;4.87;;;;;;;21.91;63.14;97982.81;4488294;32;20096;-77
2022/06/08 03:47:21;;;;;;;11.73;5.15;;;;;;;22.06;62.80;97985.59;4488250;32;20084;-77
2022/06/08 03:49:48;;;;;;;10.20;4.82;;;;;;;22.07;62.26;97995.28;4473897;32;20179;-77
2022/06/08 03:52:18;;;;;;;10.20;4.55;;;;;;;22.10;61.58;97997.63;4488141;32;20522;-77
2022/06/08 03:54:47;;;;;;;10.23;4.72;;;;;;;22.23;62.06;98001.56;4474174;32;20135;-77
2022/06/08 03:57:14;;;;;;;12.02;4.93;;;;;;;22.25;61.73;97994.19;4473863;32;20119;-77
2022/06/08 03:59:41;;;;;;;11.25;5.03;;;;;;;22.37;61.58;98000.84;4474079;32;20088;-77
2022/06/08 04:02:07;;;;;;;10.35;4.90;;;;;;;22.42;61.32;98008.34;4473744;32;20116;-77
2022/06/08 04:04:33;;;;;;;10.40;4.67;;;;;;;22.50;60.89;97994.88;4474044;32;20148;-77
2022/06/08 04:06:59;;;;;;;9.40;4.22;;;;;;;22.48;60.19;98004.94;4487858;32;20088;-77
2022/06/08 04:09:24;;;;;;;9.50;4.57;;;;;;;22.43;60.10;98002.81;4460488;32;20085;-77
2022/06/08 04:11:50;;;;;;;10.18;4.78;;;;;;;22.30;60.41;97999.88;4487889;32;20118;-78
2022/06/08 04:14:15;;;;;;;9.50;4.07;;;;;;;22.55;59.89;97996.00;4488098;32;20092;-78
2022/06/08 04:16:41;;;;;;;8.82;4.20;;;;;;;22.34;60.08;97993.12;4488142;32;20089;-78
2022/06/08 04:19:06;;;;;;;9.57;4.07;;;;;;;22.38;60.49;98003.31;4487961;32;20469;-78
2022/06/08 04:21:32;;;;;;;10.85;4.53;;;;;;;22.51;60.38;98002.75;4488014;32;20136;-77
2022/06/08 04:24:00;;;;;;;10.48;4.80;;;;;;;22.26;61.00;98001.25;4487960;32;20547;-79
2022/06/08 04:26:26;;;;;;;10.10;4.62;;;;;;;22.22;61.04;97999.91;4488144;31;20237;-75
2022/06/08 04:28:51;;;;;;;10.18;4.12;;;;;;;22.25;60.52;98002.25;4477891;32;20089;-76
2022/06/08 04:31:17;;;;;;;9.65;4.22;;;;;;;22.05;61.16;97996.47;4471906;32;20122;-77
2022/06/08 04:33:43;;;;;;;9.88;4.28;;;;;;;22.02;61.32;97999.50;4471862;32;20103;-78
2022/06/08 04:36:09;;;;;;;9.35;4.28;;;;;;;22.00;61.38;98002.38;4486399;32;20096;-79
2022/06/08 04:38:35;;;;;;;9.10;3.95;;;;;;;22.12;61.01;98006.31;4486237;32;20084;-78
2022/06/08 04:41:01;;;;;;;8.80;4.05;;;;;;;22.08;61.23;98001.47;4486350;32;20123;-78
2022/06/08 04:43:27;;;;;;;9.65;4.28;;;;;;;22.06;61.27;98017.75;4473358;32;20107;-78
2022/06/08 04:45:52;;;;;;;9.77;4.55;;;;;;;22.19;60.68;98012.66;4487117;32;20144;-78
2022/06/08 04:48:19;;;;;;;9.48;3.85;;;;;;;22.05;61.25;98012.56;4471822;32;20444;-80
2022/06/08 04:50:45;;;;;;;9.30;4.03;;;;;;;22.30;60.99;98015.97;4472063;32;20092;-79
2022/06/08 04:53:11;;;;;;;9.13;4.18;;;;;;;22.24;60.79;98005.94;4486205;32;20118;-79
2022/06/08 04:55:36;;;;;;;8.82;3.75;;;;;;;22.44;60.51;97991.03;4471779;32;20122;-78
2022/06/08 04:58:03;;;;;;;10.02;4.20;;;;;;;22.57;60.06;97991.28;4487408;32;20424;-78
2022/06/08 05:00:29;;;;;;;9.80;3.67;;;;;;;22.71;60.00;97989.66;4487326;32;20797;-79
2022/06/08 05:02:55;;;;;;;8.75;3.83;;;;;;;22.78;59.53;97987.09;4487401;32;20126;-79
2022/06/08 05:05:34;;;;;;;8.40;3.60;;;;;;;23.27;58.23;97983.94;4487384;32;20133;-79
2022/06/08 05:08:00;;;;;;;9.25;3.90;;;;;;;23.35;57.87;97993.78;4487460;32;20419;-79
2022/06/08 05:10:28;;;;;;;9.32;3.85;;;;;;;23.58;57.24;97990.16;4487254;32;20115;-78
2022/06/08 05:12:53;;;;;;;9.30;3.60;;;;;;;24.03;56.35;97994.50;4472936;32;20403;-79
2022/06/08 05:15:21;;;;;;;9.18;3.85;;;;;;;24.19;55.73;97992.62;4473001;32;20108;-79
2022/06/08 05:17:47;;;;;;;8.85;3.67;;;;;;;24.51;55.38;97996.69;4472300;32;20149;-79
2022/06/08 05:20:14;;;;;;;7.37;3.17;;;;;;;24.71;53.99;97995.03;4487292;32;20092;-79
2022/06/08 05:22:39;;;;;;;7.90;3.28;;;;;;;24.82;53.19;97993.69;4472961;32;20139;-79
2022/06/08 05:25:08;;;;;;;10.00;3.53;;;;;;;24.87;52.87;98001.16;4487216;32;20470;-79
2022/06/08 05:27:34;;;;;;;9.73;3.47;;;;;;;24.98;53.73;98002.50;4473049;32;20152;-79
2022/06/08 05:29:59;;;;;;;11.25;3.60;;;;;;;25.18;52.51;98000.78;4486541;32;20108;-77
2022/06/08 05:32:24;;;;;;;8.93;3.53;;;;;;;25.37;51.97;98001.97;4485915;32;20092;-78
2022/06/08 05:34:50;;;;;;;8.57;3.10;;;;;;;25.29;51.69;98004.84;4485987;32;20100;-78
2022/06/08 05:37:15;;;;;;;7.82;3.30;;;;;;;25.62;51.56;98007.72;4485733;32;20834;-76
2022/06/08 05:39:41;;;;;;;7.78;3.12;;;;;;;25.54;50.79;98009.78;4472471;32;20152;-77
2022/06/08 05:42:07;;;;;;;9.45;3.50;;;;;;;25.45;50.77;98011.78;4486938;32;20092;-78
2022/06/08 05:44:33;;;;;;;9.43;3.40;;;;;;;25.50;50.85;98012.03;4485881;32;20118;-78
2022/06/08 05:46:58;;;;;;;8.20;2.85;;;;;;;25.75;51.12;98008.81;4471395;32;20092;-79
2022/06/08 05:49:24;;;;;;;8.85;3.40;;;;;;;26.03;50.43;98017.69;4485839;32;20100;-77
2022/06/08 05:51:50;;;;;;;8.32;3.33;;;;;;;26.31;49.72;98000.56;4485703;32;20104;-77
2022/06/08 05:54:15;;;;;;;9.52;3.20;;;;;;;26.65;49.78;97999.59;4471360;32;20390;-79
2022/06/08 05:56:41;;;;;;;9.98;3.70;;;;;;;26.62;48.85;98000.03;4486477;31;20575;-81
2022/06/08 05:59:06;;;;;;;8.90;3.97;;;;;;;26.65;48.69;98009.59;4498430;31;20133;-81
2022/06/08 06:01:33;;;;;;;8.52;3.72;;;;;;;26.70;48.35;98008.97;4495915;31;20100;-80
2022/06/08 06:04:03;;;;;;;9.27;3.78;;;;;;;26.67;48.61;98027.25;4493143;31;20468;-79
2022/06/08 06:06:29;;;;;;;8.20;3.28;;;;;;;26.84;48.69;98026.84;4486842;31;20093;-80
2022/06/08 06:08:55;;;;;;;9.07;3.70;;;;;;;26.90;48.41;98034.13;4488536;31;20152;-80
2022/06/08 06:11:20;;;;;;;8.70;3.35;;;;;;;27.05;48.64;98039.34;4490028;31;20100;-81
2022/06/08 06:13:46;;;;;;;8.57;3.75;;;;;;;27.36;47.24;98044.13;4496117;31;20087;-80
2022/06/08 06:16:11;;;;;;;9.20;4.37;;;;;;;27.55;46.54;98041.63;4492823;31;20095;-80
2022/06/08 06:18:36;;;;;;;8.38;3.62;;;;;;;27.44;46.59;98038.50;4498561;31;20447;-79
2022/06/08 06:21:02;;;;;;;8.38;3.45;;;;;;;27.56;47.07;98035.97;4488734;31;20127;-78
2022/06/08 06:23:28;;;;;;;9.82;3.83;;;;;;;27.69;46.39;98032.41;4497837;31;20146;-77
2022/06/08 06:25:54;;;;;;;12.52;3.83;;;;;;;27.73;46.11;98030.12;4487422;31;20458;-77
2022/06/08 06:28:19;;;;;;;8.07;3.20;;;;;;;27.88;46.79;98033.44;4492140;31;20118;-77
2022/06/08 06:30:45;;;;;;;9.15;3.97;;;;;;;27.93;45.79;98030.09;4498846;31;20096;-77
2022/06/08 06:33:12;;;;;;;7.70;3.40;;;;;;;27.59;46.18;98026.63;4488688;31;20135;-77
2022/06/08 06:35:40;;;;;;;8.68;3.78;;;;;;;27.43;46.82;98031.44;4474084;31;20087;-78
2022/06/08 06:38:06;;;;;;;9.55;3.95;;;;;;;27.36;47.04;98030.62;4486999;31;20120;-77
2022/06/08 06:40:32;;;;;;;8.70;3.92;;;;;;;27.50;46.36;98023.31;4486899;31;20130;-77
2022/06/08 06:43:00;;;;;;;7.22;3.35;;;;;;;27.73;45.85;98013.88;4488484;31;20145;-77
2022/06/08 06:45:26;;;;;;;9.00;3.70;;;;;;;27.77;46.31;98024.06;4497306;31;20127;-77
2022/06/08 06:47:51;;;;;;;8.23;3.72;;;;;;;27.99;45.17;98030.06;4487230;31;20100;-77
2022/06/08 06:50:20;;;;;;;8.68;4.35;;;;;;;28.14;45.11;98037.91;4492058;31;20140;-77
2022/06/08 06:52:46;;;;;;;8.90;3.97;;;;;;;28.14;44.50;98028.97;4486753;31;20100;-79
2022/06/08 06:55:22;;;;;;;10.57;3.62;;;;;;;28.10;45.17;98019.59;4499562;31;20416;-77
2022/06/08 06:57:48;;;;;;;10.18;3.22;;;;;;;28.35;45.09;98014.28;4478779;31;20134;-79
2022/06/08 07:00:16;;;;;;;7.87;3.53;;;;;;;28.35;44.94;98012.37;4491722;31;20092;-81
2022/06/08 07:02:42;;;;;;;9.02;4.10;;;;;;;28.47;44.69;98007.09;4500200;31;20478;-81
2022/06/08 07:05:11;;;;;;;8.88;3.83;;;;;;;28.30;44.11;98001.41;4486054;31;20113;-79
2022/06/08 07:07:37;;;;;;;8.68;3.70;;;;;;;27.93;45.28;98001.16;4487013;31;20123;-81
2022/06/08 07:10:02;;;;;;;8.18;3.72;;;;;;;28.13;45.25;98001.06;4501878;31;20140;-81
2022/06/08 07:12:28;;;;;;;9.50;4.00;;;;;;;28.12;45.14;97996.66;4487233;31;20115;-82
2022/06/08 07:14:53;;;;;;;9.18;3.80;;;;;;;27.87;45.68;97995.72;4501160;31;20106;-81
2022/06/08 07:17:19;;;;;;;9.13;3.95;;;;;;;27.73;46.46;97986.81;4500466;31;20106;-80
2022/06/08 07:19:44;;;;;;;9.15;3.75;;;;;;;27.84;45.89;97986.16;4500047;31;20447;-81
2022/06/08 07:22:11;;;;;;;8.50;4.00;;;;;;;27.96;45.61;97984.47;4500227;31;20087;-81
2022/06/08 07:24:36;;;;;;;9.95;4.53;;;;;;;27.29;46.76;97974.88;4499936;31;20138;-82
2022/06/08 07:27:03;;;;;;;9.68;4.10;;;;;;;27.66;46.50;97981.41;4500263;31;20456;-81
2022/06/08 07:29:28;;;;;;;11.20;4.20;;;;;;;27.91;45.93;97978.88;4472822;31;20130;-81
2022/06/08 07:31:54;;;;;;;9.40;3.97;;;;;;;28.11;45.87;97986.91;4500853;31;20106;-81
2022/06/08 07:34:20;;;;;;;9.98;3.97;;;;;;;28.31;45.29;97986.78;4501818;31;20099;-82
2022/06/08 07:36:46;;;;;;;9.50;4.18;;;;;;;28.27;45.16;97980.16;4501561;31;20115;-82
2022/06/08 07:39:13;;;;;;;10.00;4.95;;;;;;;28.58;44.81;97978.53;4486686;31;20091;-80
2022/06/08 07:41:39;;;;;;;10.30;4.12;;;;;;;28.63;44.55;97990.38;4501683;31;20079;-80
2022/06/08 07:44:04;;;;;;;14.57;4.75;;;;;;;28.78;43.59;97976.50;4502766;31;20441;-78
2022/06/08 07:46:30;;;;;;;11.88;5.12;;;;;;;28.89;43.44;97982.25;4502379;31;20138;-79
2022/06/08 07:51:40;;;;;;;11.73;5.00;;;;;;;29.08;42.76;97977.72;4487898;32;20108;-80
2022/06/08 07:54:06;;;;;;;11.00;4.05;;;;;;;29.16;41.74;97975.56;4491628;31;20088;-81
2022/06/08 07:56:31;;;;;;;10.30;4.43;;;;;;;29.18;41.96;97976.16;4488011;31;20413;-80
2022/06/08 07:58:56;;;;;;;9.68;4.78;;;;;;;29.19;42.26;97988.69;4487759;31;20132;-80
2022/06/08 08:01:22;;;;;;;10.45;4.82;;;;;;;29.30;41.56;97978.12;4489270;31;20099;-79
2022/06/08 08:03:47;;;;;;;9.93;5.00;;;;;;;29.40;40.57;97973.03;4485949;32;20136;-80
2022/06/08 08:06:13;;;;;;;8.98;4.80;;;;;;;29.55;41.06;97978.94;4485419;32;20100;-80
2022/06/08 08:08:38;;;;;;;10.05;5.03;;;;;;;29.55;40.87;97975.38;4485873;32;20088;-80
2022/06/08 08:11:05;;;;;;;11.30;5.20;;;;;;;29.49;41.19;97968.13;4458619;32;20076;-80
2022/06/08 08:13:30;;;;;;;14.80;5.10;;;;;;;29.73;40.75;97972.69;4471557;32;20096;-80
2022/06/08 08:15:55;;;;;;;10.98;5.35;;;;;;;29.94;40.76;97971.41;4486767;32;20115;-80
2022/06/08 08:18:21;;;;;;;10.40;4.62;;;;;;;29.98;40.53;97980.75;4487113;32;20141;-80
2022/06/08 08:20:47;;;;;;;12.18;4.55;;;;;;;29.94;41.07;97979.53;4487709;32;20083;-80
2022/06/08 08:23:13;;;;;;;9.00;4.50;;;;;;;30.08;41.02;97977.47;4473270;32;20076;-80
2022/06/08 08:25:38;;;;;;;11.00;5.37;;;;;;;30.41;40.19;97978.94;4487679;32;20081;-80
2022/06/08 08:28:04;;;;;;;10.70;5.40;;;;;;;30.49;39.75;97977.78;4473356;32;20152;-80
2022/06/08 08:30:31;;;;;;;11.50;5.40;;;;;;;30.36;39.74;97982.31;4487629;32;20110;-80
2022/06/08 08:32:57;;;;;;;11.43;5.37;;;;;;;30.44;39.85;97974.91;4473336;32;20096;-80
2022/06/08 08:35:24;;;;;;;11.45;5.00;;;;;;;30.45;39.70;97982.84;4487479;32;20538;-80
2022/06/08 08:37:50;;;;;;;10.65;5.30;;;;;;;30.50;40.25;97974.84;4473500;32;20091;-80
2022/06/08 08:40:23;;;;;;;10.60;5.97;;;;;;;30.26;40.41;97976.59;4487590;32;20099;-80
2022/06/08 08:42:48;;;;;;;9.75;5.37;;;;;;;30.39;40.31;97970.19;4487668;32;20064;-80
2022/06/08 08:45:15;;;;;;;10.07;5.68;;;;;;;30.58;39.96;97977.22;4487479;32;20509;-80
2022/06/08 08:48:07;;;;;;;10.68;6.03;;;;;;;30.56;39.69;97967.63;4487541;32;20234;-80
2022/06/08 08:50:37;;;;;;;11.95;5.80;;;;;;;30.38;39.91;97969.38;4487567;32;20102;-80
2022/06/08 08:53:07;;;;;;;12.82;5.72;;;;;;;30.31;40.73;97962.34;4472209;32;20143;-80
2022/06/08 08:55:48;;;;;;;11.60;4.97;;;;;;;30.54;40.03;97969.75;4487515;32;20198;-80
2022/06/08 08:58:24;;;;;;;11.50;5.93;;;;;;;30.62;40.79;97974.00;4487460;32;20465;-80
2022/06/08 09:00:57;;;;;;;11.93;5.75;;;;;;;30.73;40.61;97967.78;4487333;32;20112;-80
2022/06/08 09:03:34;;;;;;;16.77;5.65;;;;;;;30.58;39.88;97966.34;4470702;32;75898;-80
2022/06/08 09:06:19;;;;;;;12.25;6.10;;;;;;;30.71;40.65;97969.91;4473201;32;20104;-80
2022/06/08 09:08:48;;;;;;;11.02;5.78;;;;;;;30.61;40.11;97965.03;4487422;32;20115;-82
2022/06/08 09:11:23;;;;;;;11.00;5.72;;;;;;;30.59;40.51;97959.00;4473256;32;20108;-82
2022/06/08 09:14:01;;;;;;;10.30;5.50;;;;;;;30.56;40.34;97960.31;4473210;32;20114;-80
2022/06/08 09:16:38;;;;;;;11.05;5.60;;;;;;;30.54;40.48;97977.91;4487418;32;20092;-80
2022/06/08 09:19:24;;;;;;;10.75;5.70;;;;;;;30.31;40.59;97965.91;4473825;32;20127;-80
2022/06/08 09:21:55;;;;;;;10.27;5.68;;;;;;;30.29;40.78;97969.88;4487316;32;20076;-80
2022/06/08 09:24:28;;;;;;;10.30;5.28;;;;;;;30.24;40.94;97970.56;4473066;32;20088;-80
2022/06/08 09:27:12;;;;;;;9.82;4.95;;;;;;;30.31;41.35;97974.06;4487294;32;20110;-80
2022/06/08 09:29:53;;;;;;;10.52;5.70;;;;;;;30.28;40.58;97970.94;4473114;32;20088;-80
2022/06/08 09:32:30;;;;;;;11.95;5.70;;;;;;;30.30;40.46;97969.62;4473153;32;20069;-80
2022/06/08 09:34:59;;;;;;;11.27;6.43;;;;;;;30.37;40.23;97966.87;4487278;32;20072;-80
2022/06/08 09:37:26;;;;;;;14.70;6.00;;;;;;;30.52;39.62;97961.84;4487122;32;20084;-80
2022/06/08 09:39:54;;;;;;;12.50;5.47;;;;;;;30.61;39.40;97956.88;4473037;32;20121;-80
2022/06/08 09:42:50;;;;;;;14.95;6.20;;;;;;;30.82;38.94;97947.34;4487264;32;20099;-80
2022/06/08 09:45:43;;;;;;;10.55;5.05;;;;;;;30.93;39.05;97934.84;4487194;32;20107;-80
2022/06/08 09:51:26;;;;;;;10.57;5.12;;;;;;;31.18;38.54;97926.44;4487113;32;20107;-80
2022/06/08 09:54:27;;;;;;;9.68;4.80;;;;;;;31.27;37.63;97921.44;4487073;32;20446;-80
2022/06/08 09:57:02;;;;;;;9.80;4.85;;;;;;;31.33;38.59;97921.34;4407599;32;20735;-80
2022/06/08 09:59:33;;;;;;;10.88;5.00;;;;;;;31.44;38.31;97922.38;4407582;32;20676;-80
2022/06/08 10:02:07;;;;;;;11.80;5.10;;;;;;;31.65;37.83;97909.22;4394829;32;20120;-80
2022/06/08 10:04:41;;;;;;;10.82;5.22;;;;;;;31.61;37.71;97911.59;4394394;32;20145;-80
2022/06/08 10:07:28;;;;;;;10.40;5.35;;;;;;;31.48;38.37;97912.69;4407358;32;20153;-80
2022/06/08 10:09:56;;;;;;;11.38;5.60;;;;;;;31.19;39.05;97902.78;4407384;32;20297;-80
2022/06/08 10:12:26;;;;;;;10.50;5.25;;;;;;;30.78;40.01;97898.03;4407137;32;20292;-80
2022/06/08 10:15:13;;;;;;;11.45;5.28;;;;;;;30.65;39.93;97887.38;4407364;32;20167;-80
2022/06/08 10:17:50;;;;;;;10.02;4.65;;;;;;;30.62;40.56;97892.47;4407330;32;20140;-80
2022/06/08 10:20:20;;;;;;;10.97;5.90;;;;;;;30.42;41.17;97887.34;4394669;32;20094;-80
2022/06/08 10:22:50;;;;;;;10.50;5.43;;;;;;;29.85;41.13;97890.50;4407210;32;20413;-80
2022/06/08 10:25:25;;;;;;;10.50;4.90;;;;;;;29.84;41.66;97883.38;4394882;32;20117;-80
2022/06/08 10:27:59;;;;;;;12.52;5.18;;;;;;;29.75;42.57;97885.59;4394657;32;20106;-80
2022/06/08 10:30:42;;;;;;;14.05;5.35;;;;;;;29.74;39.36;97887.47;4418750;32;20173;-80
2022/06/08 10:33:23;;;;;;;14.07;6.05;;;;;;;29.86;38.67;97884.81;4472599;32;20165;-80
2022/06/08 10:35:53;;;;;;;9.35;4.53;;;;;;;29.76;37.93;97885.34;4486751;32;20525;-80
2022/06/08 10:38:30;;;;;;;11.15;4.78;;;;;;;29.51;38.42;97873.75;4472675;32;20430;-80
2022/06/08 10:42:39;;;;;;;9.70;4.93;;;;;;;29.29;38.07;97878.84;4486596;32;20416;-80
2022/06/08 10:43:50;;;;;;;12.63;4.95;;;;;;;29.44;38.01;97870.28;4486461;32;20076;-80
2022/06/08 10:46:46;;;;;;;9.82;4.82;;;;;;;29.46;39.22;97868.19;4486483;32;20118;-80
2022/06/08 10:49:31;;;;;;;14.02;5.22;;;;;;;29.43;39.71;97861.34;4465613;32;20084;-80
2022/06/08 10:52:22;;;;;;;10.15;4.50;;;;;;;29.52;39.40;97854.53;4486452;32;20527;-80
2022/06/08 10:54:54;;;;;;;9.55;4.60;;;;;;;29.67;37.50;97846.00;4472187;32;20124;-80
2022/06/08 10:57:48;;;;;;;12.60;4.50;;;;;;;29.70;37.26;97848.25;4472286;32;20088;-80
2022/06/08 11:00:20;;;;;;;9.57;4.37;;;;;;;29.79;36.55;97851.50;4478751;32;20084;-80
2022/06/08 11:02:48;;;;;;;9.45;4.47;;;;;;;29.77;37.46;97845.47;4486310;32;20504;-80
2022/06/08 11:05:35;;;;;;;8.73;4.12;;;;;;;29.88;37.45;97839.28;4486369;32;20439;-80
2022/06/08 11:08:00;;;;;;;8.82;4.05;;;;;;;29.98;35.85;97838.72;4472058;32;20088;-80
2022/06/08 11:10:54;;;;;;;8.02;3.28;;;;;;;30.04;35.79;97831.50;4486117;32;20602;-80
2022/06/08 11:13:22;;;;;;;8.30;3.87;;;;;;;30.23;34.01;97822.22;4477915;32;20464;-80
2022/06/08 11:16:23;;;;;;;9.30;3.58;;;;;;;30.32;32.62;97834.41;4486905;32;20141;-80
2022/06/08 11:19:00;;;;;;;8.00;3.40;;;;;;;30.29;32.57;97832.16;4460784;32;20440;-80
2022/06/08 11:21:45;;;;;;;10.18;3.33;;;;;;;30.28;32.62;97837.81;4474020;32;20121;-80
2022/06/08 11:24:30;;;;;;;8.88;3.22;;;;;;;30.45;31.78;97833.38;4474094;32;20534;-80
2022/06/08 11:27:11;;;;;;;20.15;3.50;;;;;;;30.50;31.59;97822.63;4474274;32;20130;-80
2022/06/08 11:30:00;;;;;;;8.35;3.20;;;;;;;30.55;31.29;97827.34;4487963;32;20462;-80
2022/06/08 11:32:32;;;;;;;12.63;3.53;;;;;;;30.55;31.46;97820.00;4488126;32;20103;-80
2022/06/08 11:35:22;;;;;;;10.32;3.45;;;;;;;30.60;32.00;97811.16;4488165;32;20085;-80
2022/06/08 11:38:21;;;;;;;10.55;3.37;;;;;;;30.66;31.43;97807.50;4488132;32;20116;-80
2022/06/08 11:40:47;;;;;;;11.18;3.65;;;;;;;30.70;31.32;97807.84;4473112;32;20143;-80
2022/06/08 11:43:13;;;;;;;12.30;3.72;;;;;;;30.69;31.57;97796.13;4473684;32;20080;-80
2022/06/08 11:45:47;;;;;;;6.47;3.08;;;;;;;30.75;31.20;97797.06;4488017;32;20154;-80
2022/06/08 11:48:23;;;;;;;22.65;5.18;;;;;;;30.93;31.58;97796.97;4473949;32;20499;-80
2022/06/08 11:50:56;;;;;;;8.98;3.42;;;;;;;31.09;30.63;97795.38;4473601;32;20099;-80
2022/06/08 11:53:33;;;;;;;17.40;4.15;;;;;;;31.04;30.87;97811.63;4487955;32;20446;-80
2022/06/08 11:56:29;;;;;;;16.52;4.20;;;;;;;31.10;30.71;97809.81;4473531;32;20127;-80
2022/06/08 11:58:59;;;;;;;8.68;3.50;;;;;;;31.16;30.37;97809.69;4473882;32;20100;-80